createdAt,value
2023-02-09T00:01:13.734Z,23.42
2023-02-09T00:03:41.929Z,30.77
2023-02-09T00:06:12.491Z,25.70
2023-02-09T00:08:40.072Z,25.83
2023-02-09T00:11:08.293Z,24.42
2023-02-09T00:13:36.436Z,25.98
2023-02-09T00:16:08.500Z,28.92
2023-02-09T00:18:36.393Z,27.75
2023-02-09T00:21:06.048Z,27.73
2023-02-09T00:23:38.210Z,24.75
2023-02-09T00:26:08.133Z,29.88
2023-02-09T00:28:36.048Z,26.80
2023-02-09T00:31:08.521Z,28.98
2023-02-09T00:33:38.823Z,24.60
2023-02-09T00:36:11.702Z,24.58
2023-02-09T00:38:39.941Z,29.83
2023-02-09T00:41:07.739Z,27.92
2023-02-09T00:43:37.071Z,35.28
2023-02-09T00:46:04.868Z,25.33
2023-02-09T00:48:34.236Z,26.30
2023-02-09T00:51:02.118Z,30.25
2023-02-09T00:53:30.811Z,33.70
2023-02-09T00:55:58.210Z,28.58
2023-02-09T00:58:28.375Z,29.05
2023-02-09T01:00:57.827Z,29.17
2023-02-09T01:03:25.138Z,25.10
2023-02-09T01:06:01.078Z,30.17
2023-02-09T01:08:28.917Z,25.25
2023-02-09T01:10:57.396Z,28.45
2023-02-09T01:13:25.365Z,26.05
2023-02-09T01:15:52.762Z,28.05
2023-02-09T01:18:24.966Z,30.10
2023-02-09T01:20:52.464Z,30.92
2023-02-09T01:23:21.278Z,32.90
2023-02-09T01:25:48.656Z,30.80
2023-02-09T01:28:17.670Z,29.40
2023-02-09T01:30:45.583Z,29.00
2023-02-09T01:33:14.780Z,22.13
2023-02-09T01:35:42.106Z,24.85
2023-02-09T01:38:09.462Z,33.63
2023-02-09T01:40:39.937Z,31.83
2023-02-09T01:43:11.944Z,29.45
2023-02-09T01:45:44.683Z,27.00
2023-02-09T01:48:16.995Z,25.85
2023-02-09T01:50:47.330Z,26.02
2023-02-09T01:53:15.433Z,27.17
2023-02-09T01:55:49.991Z,27.52
2023-02-09T01:58:21.065Z,28.02
2023-02-09T02:00:49.658Z,25.70
2023-02-09T02:03:19.986Z,28.42
2023-02-09T02:05:51.594Z,29.27
2023-02-09T02:08:27.952Z,28.75
2023-02-09T02:10:57.262Z,31.77
2023-02-09T02:13:24.762Z,29.25
2023-02-09T02:16:04.832Z,25.15
2023-02-09T02:18:57.064Z,26.75
2023-02-09T02:21:47.009Z,37.53
2023-02-09T02:24:52.717Z,29.70
2023-02-09T02:27:32.057Z,26.20
2023-02-09T02:30:24.352Z,28.10
2023-02-09T02:33:13.319Z,27.50
2023-02-09T02:35:48.263Z,25.33
2023-02-09T02:38:19.595Z,33.28
2023-02-09T02:40:57.512Z,29.83
2023-02-09T02:43:40.262Z,28.45
2023-02-09T02:46:13.951Z,28.95
2023-02-09T02:48:48.097Z,32.30
2023-02-09T02:51:20.253Z,32.88
2023-02-09T02:53:52.826Z,29.92
2023-02-09T02:56:25.501Z,31.10
2023-02-09T02:58:56.853Z,29.83
2023-02-09T03:01:28.367Z,28.55
2023-02-09T03:03:58.764Z,35.80
2023-02-09T03:06:26.067Z,34.50
2023-02-09T03:08:55.137Z,30.58
2023-02-09T03:11:27.888Z,32.13
2023-02-09T03:14:23.810Z,27.73
2023-02-09T03:17:04.601Z,32.35
2023-02-09T03:19:43.428Z,25.45
2023-02-09T03:22:18.373Z,29.27
2023-02-09T03:24:53.307Z,31.63
2023-02-09T03:27:25.135Z,31.45
2023-02-09T03:29:57.253Z,32.13
2023-02-09T03:32:25.876Z,31.23
2023-02-09T03:34:55.455Z,28.23
2023-02-09T03:37:23.537Z,29.55
2023-02-09T03:39:50.883Z,30.65
2023-02-09T03:42:18.245Z,28.02
2023-02-09T03:44:45.627Z,29.08
2023-02-09T03:47:13.105Z,25.70
2023-02-09T03:49:42.867Z,27.23
2023-02-09T03:52:13.848Z,29.45
2023-02-09T03:54:41.584Z,26.02
2023-02-09T03:57:10.041Z,30.52
2023-02-09T03:59:47.279Z,24.30
2023-02-09T04:02:22.269Z,27.52
2023-02-09T04:04:49.590Z,30.35
2023-02-09T04:07:18.436Z,33.00
2023-02-09T04:09:45.936Z,29.52
2023-02-09T04:12:13.316Z,30.73
2023-02-09T04:14:40.732Z,35.45
2023-02-09T04:17:08.043Z,31.67
2023-02-09T04:19:35.539Z,32.67
2023-02-09T04:22:03.291Z,29.95
2023-02-09T04:24:32.026Z,28.92
2023-02-09T04:26:59.385Z,25.25
2023-02-09T04:29:27.067Z,28.35
2023-02-09T04:31:54.546Z,28.52
2023-02-09T04:34:21.882Z,28.15
2023-02-09T04:36:49.296Z,24.35
2023-02-09T04:39:16.936Z,26.63
2023-02-09T04:41:45.759Z,27.63
2023-02-09T04:44:14.420Z,23.88
2023-02-09T04:46:42.134Z,32.35
2023-02-09T04:49:10.182Z,24.02
2023-02-09T04:51:37.602Z,25.80
2023-02-09T04:54:05.049Z,30.60
2023-02-09T04:56:32.656Z,28.38
2023-02-09T04:59:01.432Z,28.17
2023-02-09T05:01:31.209Z,25.33
2023-02-09T05:03:58.790Z,25.27
2023-02-09T05:06:28.581Z,23.45
2023-02-09T05:08:58.482Z,26.85
2023-02-09T05:11:25.842Z,25.48
2023-02-09T05:13:53.346Z,28.38
2023-02-09T05:16:27.538Z,25.40
2023-02-09T05:18:54.940Z,25.85
2023-02-09T05:21:22.309Z,30.48
2023-02-09T05:23:49.643Z,25.52
2023-02-09T05:26:16.978Z,28.20
2023-02-09T05:28:44.308Z,27.23
2023-02-09T05:31:11.788Z,27.33
2023-02-09T05:33:40.529Z,24.27
2023-02-09T05:36:08.892Z,22.58
2023-02-09T05:38:36.502Z,27.25
2023-02-09T05:41:08.692Z,26.55
2023-02-09T05:43:38.435Z,26.15
2023-02-09T05:46:08.276Z,28.70
2023-02-09T05:48:35.970Z,28.83
2023-02-09T05:51:05.105Z,35.00
2023-02-09T05:53:32.425Z,30.30
2023-02-09T05:56:00.515Z,26.67
2023-02-09T05:58:30.474Z,25.30
2023-02-09T06:00:57.833Z,27.92
2023-02-09T06:03:25.316Z,31.83
2023-02-09T06:05:55.584Z,35.90
2023-02-09T06:08:24.258Z,36.25
2023-02-09T06:10:51.706Z,41.72
2023-02-09T06:13:19.028Z,30.63
2023-02-09T06:15:46.363Z,28.50
2023-02-09T06:18:13.746Z,40.55
2023-02-09T06:20:41.030Z,37.88
2023-02-09T06:23:08.449Z,45.85
2023-02-09T06:25:41.146Z,29.50
2023-02-09T06:28:11.172Z,36.15
2023-02-09T06:30:41.307Z,44.83
2023-02-09T06:33:08.826Z,39.10
2023-02-09T06:35:36.240Z,34.05
2023-02-09T06:38:03.803Z,37.50
2023-02-09T06:40:31.253Z,36.55
2023-02-09T06:43:00.114Z,30.17
2023-02-09T06:45:27.547Z,28.75
2023-02-09T06:47:55.000Z,25.42
2023-02-09T06:50:22.648Z,24.85
2023-02-09T06:52:52.524Z,46.70
2023-02-09T06:55:22.501Z,36.05
2023-02-09T06:57:49.859Z,35.85
2023-02-09T07:00:19.437Z,37.65
2023-02-09T07:02:56.568Z,34.05
2023-02-09T07:05:24.074Z,39.65
2023-02-09T07:07:51.883Z,34.28
2023-02-09T07:10:19.609Z,37.30
2023-02-09T07:12:46.964Z,32.88
2023-02-09T07:15:16.111Z,33.75
2023-02-09T07:17:44.928Z,34.40
2023-02-09T07:20:12.903Z,33.58
2023-02-09T07:22:41.831Z,32.45
2023-02-09T07:25:12.292Z,49.10
2023-02-09T07:27:43.444Z,40.10
2023-02-09T07:30:16.422Z,31.83
2023-02-09T07:32:47.804Z,36.80
2023-02-09T07:35:15.379Z,39.72
2023-02-09T07:37:42.746Z,38.17
2023-02-09T07:40:11.087Z,39.88
2023-02-09T07:42:38.402Z,37.50
2023-02-09T07:45:09.821Z,37.45
2023-02-09T07:47:37.604Z,38.80
2023-02-09T07:50:08.184Z,36.53
2023-02-09T07:52:35.583Z,41.45
2023-02-09T07:55:03.338Z,42.72
2023-02-09T07:57:33.565Z,58.05
2023-02-09T08:00:03.983Z,49.55
2023-02-09T08:02:35.684Z,44.50
2023-02-09T08:07:32.323Z,32.10
2023-02-09T08:09:59.594Z,29.10
2023-02-09T08:12:30.373Z,35.13
2023-02-09T08:14:57.827Z,34.17
2023-02-09T08:17:25.027Z,36.75
2023-02-09T08:19:55.716Z,36.60
2023-02-09T08:22:25.336Z,30.50
2023-02-09T08:24:54.550Z,36.38
2023-02-09T08:27:33.562Z,27.42
2023-02-09T08:30:02.149Z,28.38
2023-02-09T08:32:29.501Z,29.58
2023-02-09T08:34:56.843Z,33.40
2023-02-09T08:37:24.280Z,31.75
2023-02-09T08:39:51.691Z,25.83
2023-02-09T08:42:23.163Z,27.05
2023-02-09T08:44:50.913Z,23.38
2023-02-09T08:47:18.409Z,25.13
2023-02-09T08:49:45.845Z,21.75
2023-02-09T08:52:16.370Z,24.45
2023-02-09T08:54:46.435Z,23.90
2023-02-09T08:57:16.238Z,25.77
2023-02-09T08:59:44.965Z,25.63
2023-02-09T09:02:15.398Z,25.60
2023-02-09T09:04:42.960Z,22.02
2023-02-09T09:07:10.405Z,23.63
2023-02-09T09:09:37.784Z,20.60
2023-02-09T09:12:05.467Z,21.95
2023-02-09T09:14:35.967Z,25.90
2023-02-09T09:17:06.362Z,22.38
2023-02-09T09:19:36.570Z,23.35
2023-02-09T09:22:03.900Z,20.08
2023-02-09T09:24:31.540Z,23.23
2023-02-09T09:26:58.902Z,22.08
2023-02-09T09:29:28.144Z,24.13
2023-02-09T09:31:55.655Z,19.27
2023-02-09T09:34:25.755Z,21.75
2023-02-09T09:36:54.821Z,20.33
2023-02-09T09:39:22.207Z,19.15
2023-02-09T09:41:53.899Z,19.80
2023-02-09T09:44:31.249Z,20.52
2023-02-09T09:47:03.016Z,18.50
2023-02-09T09:52:04.210Z,17.58
2023-02-09T09:57:01.087Z,20.25
2023-02-09T09:59:32.956Z,22.90
2023-02-09T10:02:14.022Z,19.05
2023-02-09T10:04:43.031Z,18.75
2023-02-09T10:07:17.972Z,18.10
2023-02-09T10:09:52.071Z,19.92
2023-02-09T10:12:32.171Z,20.63
2023-02-09T10:14:59.973Z,19.70
2023-02-09T10:17:27.449Z,21.23
2023-02-09T10:20:06.580Z,18.45
2023-02-09T10:22:38.142Z,21.65
2023-02-09T10:25:39.002Z,22.13
2023-02-09T10:28:18.353Z,21.02
2023-02-09T10:30:48.114Z,18.08
2023-02-09T10:33:15.882Z,21.30
2023-02-09T10:35:49.028Z,19.17
2023-02-09T10:38:19.720Z,21.92
2023-02-09T10:40:50.657Z,18.70
2023-02-09T10:43:24.086Z,18.95
2023-02-09T10:45:54.914Z,18.77
2023-02-09T10:48:24.192Z,19.88
2023-02-09T10:50:59.216Z,22.17
2023-02-09T10:53:31.603Z,19.00
2023-02-09T10:56:02.026Z,17.67
2023-02-09T10:58:32.953Z,21.73
2023-02-09T11:01:12.926Z,14.82
2023-02-09T11:03:57.322Z,20.80
2023-02-09T11:06:26.746Z,18.27
2023-02-09T11:08:59.757Z,19.27
2023-02-09T11:11:31.172Z,17.50
2023-02-09T11:14:02.352Z,24.77
2023-02-09T11:17:07.286Z,21.73
2023-02-09T11:20:04.615Z,21.17
2023-02-09T11:22:57.872Z,21.35
2023-02-09T11:25:28.062Z,21.33
2023-02-09T11:28:11.196Z,22.50
2023-02-09T11:31:00.107Z,21.42
2023-02-09T11:33:41.071Z,24.50
2023-02-09T11:36:23.632Z,20.55
2023-02-09T11:39:00.405Z,24.80
2023-02-09T11:41:31.216Z,23.27
2023-02-09T11:44:02.488Z,22.80
2023-02-09T11:46:34.171Z,21.05
2023-02-09T11:49:07.252Z,21.05
2023-02-09T11:51:38.956Z,22.92
2023-02-09T11:56:44.263Z,23.60
2023-02-09T12:01:49.983Z,23.73
2023-02-09T12:04:21.257Z,25.73
2023-02-09T12:06:51.783Z,22.77
2023-02-09T12:09:45.897Z,20.77
2023-02-09T12:12:23.948Z,22.35
2023-02-09T12:15:00.225Z,22.25
2023-02-09T12:17:36.626Z,20.80
2023-02-09T12:20:05.771Z,21.02
2023-02-09T12:22:52.169Z,23.05
2023-02-09T12:25:31.939Z,24.65
2023-02-09T12:28:17.684Z,19.85
2023-02-09T12:30:59.789Z,23.20
2023-02-09T12:33:32.139Z,23.58
2023-02-09T12:36:02.586Z,21.63
2023-02-09T12:39:06.196Z,21.88
2023-02-09T12:42:07.146Z,24.55
2023-02-09T12:44:55.820Z,23.48
2023-02-09T12:47:46.746Z,27.10
2023-02-09T12:50:35.145Z,22.90
2023-02-09T12:53:45.297Z,23.27
2023-02-09T12:56:33.360Z,25.60
2023-02-09T12:59:18.332Z,26.23
2023-02-09T13:02:23.840Z,29.35
2023-02-09T13:05:01.798Z,23.58
2023-02-09T13:07:40.320Z,24.15
2023-02-09T13:10:20.242Z,23.77
2023-02-09T13:12:52.911Z,30.63
2023-02-09T13:15:26.605Z,25.98
2023-02-09T13:18:24.231Z,27.10
2023-02-09T13:21:12.973Z,26.35
2023-02-09T13:23:53.947Z,26.08
2023-02-09T13:26:28.582Z,24.75
2023-02-09T13:29:20.405Z,26.88
2023-02-09T13:32:05.910Z,26.45
2023-02-09T13:34:39.881Z,27.92
2023-02-09T13:37:20.912Z,26.38
2023-02-09T13:39:55.139Z,23.87
2023-02-09T13:42:24.479Z,25.45
2023-02-09T13:44:54.005Z,22.60
2023-02-09T13:47:31.984Z,26.63
2023-02-09T13:50:03.675Z,19.08
2023-02-09T13:52:38.778Z,23.50
2023-02-09T13:55:11.731Z,27.77
2023-02-09T13:57:42.181Z,27.75
2023-02-09T14:00:27.491Z,24.55
2023-02-09T14:02:58.512Z,26.15
2023-02-09T14:05:36.852Z,24.70
2023-02-09T14:08:07.701Z,24.52
2023-02-09T14:10:43.292Z,25.92
2023-02-09T14:13:22.033Z,26.55
2023-02-09T14:15:56.260Z,26.90
2023-02-09T14:21:21.936Z,27.13
2023-02-09T14:24:08.712Z,26.35
2023-02-09T14:26:49.820Z,31.73
2023-02-09T14:29:24.905Z,25.83
2023-02-09T14:32:00.370Z,26.88
2023-02-09T14:34:35.830Z,26.38
2023-02-09T14:37:29.324Z,23.65
2023-02-09T14:39:58.725Z,26.33
2023-02-09T14:42:26.748Z,26.77
2023-02-09T14:44:56.118Z,27.85
2023-02-09T14:47:37.619Z,28.20
2023-02-09T14:50:06.340Z,25.20
2023-02-09T14:52:35.249Z,29.23
2023-02-09T14:55:06.577Z,22.47
2023-02-09T14:57:35.563Z,28.02
2023-02-09T15:00:18.202Z,28.95
2023-02-09T15:02:46.236Z,26.77
2023-02-09T15:05:16.586Z,31.15
2023-02-09T15:07:54.838Z,28.90
2023-02-09T15:10:28.429Z,28.27
2023-02-09T15:12:56.176Z,34.75
2023-02-09T15:15:25.209Z,29.92
2023-02-09T15:17:53.286Z,49.88
2023-02-09T15:20:24.621Z,41.72
2023-02-09T15:22:54.733Z,39.38
2023-02-09T15:25:23.591Z,28.80
2023-02-09T15:27:57.493Z,27.05
2023-02-09T15:30:30.545Z,25.55
2023-02-09T15:33:12.020Z,24.73
2023-02-09T15:35:47.235Z,23.95
2023-02-09T15:38:17.320Z,25.90
2023-02-09T15:40:47.425Z,25.20
2023-02-09T15:43:20.319Z,27.10
2023-02-09T15:45:47.879Z,26.17
2023-02-09T15:48:15.460Z,25.98
2023-02-09T15:50:47.903Z,22.80
2023-02-09T15:53:18.945Z,26.33
2023-02-09T15:55:47.003Z,29.50
2023-02-09T15:58:18.447Z,27.35
2023-02-09T16:00:48.139Z,25.92
2023-02-09T16:03:20.318Z,26.70
2023-02-09T16:05:50.477Z,26.13
2023-02-09T16:08:23.931Z,23.13
2023-02-09T16:10:51.795Z,22.67
2023-02-09T16:13:20.697Z,26.70
2023-02-09T16:15:48.615Z,27.27
2023-02-09T16:18:16.174Z,26.95
2023-02-09T16:20:46.950Z,25.50
2023-02-09T16:23:24.503Z,28.77
2023-02-09T16:25:53.786Z,27.17
2023-02-09T16:28:21.941Z,34.10
2023-02-09T16:30:51.981Z,27.45
2023-02-09T16:33:20.137Z,25.95
2023-02-09T16:35:52.418Z,27.63
2023-02-09T16:38:22.940Z,26.60
2023-02-09T16:40:50.735Z,29.90
2023-02-09T16:43:18.956Z,29.02
2023-02-09T16:46:00.897Z,30.08
2023-02-09T16:48:32.516Z,30.23
2023-02-09T16:51:00.040Z,29.75
2023-02-09T16:53:35.556Z,32.28
2023-02-09T16:56:05.425Z,30.50
2023-02-09T16:58:33.316Z,29.77
2023-02-09T17:01:01.193Z,25.98
2023-02-09T17:03:33.964Z,30.98
2023-02-09T17:06:02.888Z,30.80
2023-02-09T17:08:34.157Z,30.13
2023-02-09T17:11:03.683Z,28.48
2023-02-09T17:13:37.823Z,31.08
2023-02-09T17:16:07.387Z,26.42
2023-02-09T17:18:39.248Z,29.67
2023-02-09T17:23:35.976Z,30.05
2023-02-09T17:26:07.274Z,30.13
2023-02-09T17:28:36.618Z,29.90
2023-02-09T17:31:17.265Z,28.00
2023-02-09T17:33:48.378Z,26.80
2023-02-09T17:36:32.736Z,30.73
2023-02-09T17:39:04.265Z,31.17
2023-02-09T17:41:36.444Z,29.23
2023-02-09T17:44:24.281Z,33.20
2023-02-09T17:46:59.513Z,37.92
2023-02-09T17:49:33.969Z,38.03
2023-02-09T17:52:02.204Z,29.77
2023-02-09T17:54:34.054Z,29.75
2023-02-09T17:57:02.019Z,34.65
2023-02-09T17:59:34.014Z,35.15
2023-02-09T18:02:01.795Z,38.95
2023-02-09T18:04:29.555Z,35.38
2023-02-09T18:06:58.649Z,33.92
2023-02-09T18:09:26.704Z,34.40
2023-02-09T18:12:01.640Z,29.95
2023-02-09T18:14:31.226Z,36.33
2023-02-09T18:16:59.156Z,36.97
2023-02-09T18:19:30.205Z,36.42
2023-02-09T18:22:02.535Z,34.03
2023-02-09T18:24:36.324Z,35.03
2023-02-09T18:27:18.799Z,25.67
2023-02-09T18:29:47.211Z,31.58
2023-02-09T18:32:16.773Z,34.00
2023-02-09T18:34:48.198Z,30.10
2023-02-09T18:37:21.821Z,28.60
2023-02-09T18:39:55.370Z,33.58
2023-02-09T18:42:24.545Z,34.03
2023-02-09T18:44:52.076Z,39.63
2023-02-09T18:47:19.652Z,39.40
2023-02-09T18:49:50.091Z,30.23
2023-02-09T18:52:17.780Z,35.97
2023-02-09T18:54:45.349Z,34.38
2023-02-09T18:57:13.066Z,31.73
2023-02-09T18:59:42.104Z,37.97
2023-02-09T19:02:11.205Z,31.90
2023-02-09T19:04:39.236Z,29.48
2023-02-09T19:07:06.587Z,35.75
2023-02-09T19:09:37.048Z,32.65
2023-02-09T19:12:04.877Z,31.83
2023-02-09T19:14:37.577Z,38.42
2023-02-09T19:17:09.209Z,37.88
2023-02-09T19:19:36.698Z,32.67
2023-02-09T19:22:04.176Z,33.03
2023-02-09T19:24:32.209Z,36.25
2023-02-09T19:26:59.755Z,41.10
2023-02-09T19:29:27.326Z,39.58
2023-02-09T19:31:55.313Z,34.05
2023-02-09T19:34:24.261Z,40.80
2023-02-09T19:36:54.318Z,38.80
2023-02-09T19:39:25.066Z,34.95
2023-02-09T19:41:55.484Z,38.90
2023-02-09T19:44:22.980Z,34.17
2023-02-09T19:46:50.624Z,41.50
2023-02-09T19:49:21.549Z,35.30
2023-02-09T19:51:53.868Z,36.25
2023-02-09T19:54:25.549Z,40.10
2023-02-09T19:56:57.568Z,37.95
2023-02-09T20:01:54.736Z,36.75
2023-02-09T20:04:24.932Z,38.17
2023-02-09T20:06:55.999Z,37.65
2023-02-09T20:09:23.515Z,36.75
2023-02-09T20:11:51.435Z,36.78
2023-02-09T20:14:20.772Z,37.20
2023-02-09T20:16:48.279Z,48.30
2023-02-09T20:19:15.908Z,38.45
2023-02-09T20:21:43.348Z,37.58
2023-02-09T20:24:17.334Z,33.42
2023-02-09T20:26:45.691Z,38.08
2023-02-09T20:29:13.602Z,33.40
2023-02-09T20:31:42.084Z,43.00
2023-02-09T20:34:13.134Z,43.40
2023-02-09T20:36:42.427Z,38.45
2023-02-09T20:39:13.640Z,32.33
2023-02-09T20:41:42.275Z,35.72
2023-02-09T20:44:12.322Z,33.60
2023-02-09T20:46:40.284Z,29.92
2023-02-09T20:49:10.206Z,41.88
2023-02-09T20:51:38.980Z,34.70
2023-02-09T20:54:06.737Z,36.17
2023-02-09T20:56:36.260Z,38.75
2023-02-09T20:59:07.641Z,42.13
2023-02-09T21:01:36.585Z,39.47
2023-02-09T21:04:04.686Z,36.65
2023-02-09T21:06:32.262Z,39.75
2023-02-09T21:09:02.465Z,34.95
2023-02-09T21:11:30.661Z,38.47
2023-02-09T21:13:59.474Z,37.53
2023-02-09T21:16:28.366Z,33.42
2023-02-09T21:18:55.810Z,37.50
2023-02-09T21:21:23.889Z,36.85
2023-02-09T21:23:51.408Z,32.97
2023-02-09T21:26:21.670Z,36.65
2023-02-09T21:28:49.190Z,38.03
2023-02-09T21:31:20.700Z,37.05
2023-02-09T21:33:48.349Z,43.00
2023-02-09T21:36:19.677Z,40.60
2023-02-09T21:38:47.361Z,40.83
2023-02-09T21:41:20.251Z,35.90
2023-02-09T21:43:49.874Z,42.30
2023-02-09T21:46:18.560Z,38.25
2023-02-09T21:48:47.661Z,36.05
2023-02-09T21:51:15.153Z,38.80
2023-02-09T21:53:42.543Z,38.75
2023-02-09T21:56:10.140Z,39.78
2023-02-09T21:58:37.517Z,41.08
2023-02-09T22:01:05.241Z,41.15
2023-02-09T22:03:34.079Z,43.40
2023-02-09T22:06:04.906Z,42.38
2023-02-09T22:08:34.710Z,38.00
2023-02-09T22:11:03.726Z,35.80
2023-02-09T22:13:31.793Z,39.72
2023-02-09T22:15:59.391Z,39.30
2023-02-09T22:18:27.906Z,42.53
2023-02-09T22:20:56.769Z,40.88
2023-02-09T22:23:24.306Z,42.10
2023-02-09T22:25:51.715Z,40.25
2023-02-09T22:28:19.330Z,44.58
2023-02-09T22:30:47.020Z,52.25
2023-02-09T22:33:14.507Z,54.63
2023-02-09T22:35:43.495Z,54.15
2023-02-09T22:38:13.718Z,49.10
2023-02-09T22:40:45.653Z,45.53
2023-02-09T22:43:13.191Z,40.10
2023-02-09T22:45:42.187Z,40.08
2023-02-09T22:48:10.744Z,44.30
2023-02-09T22:50:38.242Z,46.90
2023-02-09T22:53:07.001Z,44.47
2023-02-09T22:55:35.870Z,37.83
2023-02-09T22:58:03.367Z,36.80
2023-02-09T23:00:30.676Z,44.45
2023-02-09T23:02:58.180Z,41.58
2023-02-09T23:05:25.590Z,44.28
2023-02-09T23:07:54.332Z,47.10
2023-02-09T23:10:21.661Z,45.80
2023-02-09T23:12:50.436Z,41.22
2023-02-09T23:15:19.379Z,48.55
2023-02-09T23:17:46.773Z,44.90
2023-02-09T23:20:14.122Z,44.33
2023-02-09T23:22:46.527Z,40.90
2023-02-09T23:25:13.975Z,43.20
2023-02-09T23:27:41.506Z,43.63
2023-02-09T23:30:11.366Z,40.75
2023-02-09T23:32:38.698Z,45.13
2023-02-09T23:35:08.859Z,44.97
2023-02-09T23:37:37.954Z,49.50
2023-02-09T23:40:06.463Z,45.58
2023-02-09T23:42:33.812Z,45.83
2023-02-09T23:45:01.165Z,45.58
2023-02-09T23:47:29.888Z,41.67
2023-02-09T23:49:57.208Z,51.28
2023-02-09T23:52:26.186Z,44.28
2023-02-09T23:54:53.662Z,48.30
2023-02-09T23:57:21.029Z,39.03
2023-02-09T23:59:51.783Z,42.72
